Time;durP1;ratioP1;P1;durP2;ratioP2;P2;SDS_P1;SDS_P2;PMS_P1;PMS_P2;Temp;Humidity;BMP_temperature;BMP_pressure;BME280_temperature;BME280_humidity;BME280_pressure;Samples;Min_cycle;Max_cycle;Signal;HPM_P1;HPM_P2
2023/04/07 00:01:52;;;;;;;67.10;43.80;;;;;;;;;;5027059;28;20321;-78
2023/04/07 00:04:18;;;;;;;68.23;43.57;;;;;;;;;;5026754;28;20260;-78
2023/04/07 00:06:44;;;;;;;73.73;44.80;;;;;;;;;;5024084;28;20199;-80
2023/04/07 00:09:10;;;;;;;76.10;44.77;;;;;;;;;;5023757;28;20193;-78
2023/04/07 00:11:36;;;;;;;70.67;44.53;;;;;;;;;;5029347;28;20234;-77
2023/04/07 00:14:02;;;;;;;76.07;45.23;;;;;;;;;;5026908;28;20199;-78
2023/04/07 00:16:28;;;;;;;78.63;45.47;;;;;;;;;;5025296;28;20192;-78
2023/04/07 00:18:54;;;;;;;78.90;45.30;;;;;;;;;;5009283;28;20270;-77
2023/04/07 00:21:20;;;;;;;78.20;45.43;;;;;;;;;;5024717;28;20187;-78
2023/04/07 00:23:47;;;;;;;77.57;45.53;;;;;;;;;;5018045;28;20196;-78
2023/04/07 00:26:13;;;;;;;80.73;44.20;;;;;;;;;;5031815;28;20180;-78
2023/04/07 00:28:39;;;;;;;80.57;43.67;;;;;;;;;;5028353;28;20184;-78
2023/04/07 00:31:05;;;;;;;72.07;42.03;;;;;;;;;;5031296;28;20207;-78
2023/04/07 00:33:31;;;;;;;79.70;42.77;;;;;;;;;;5017775;28;20194;-79
2023/04/07 00:35:57;;;;;;;74.67;41.67;;;;;;;;;;5013301;28;20215;-79
2023/04/07 00:38:23;;;;;;;66.90;39.43;;;;;;;;;;5028922;28;20188;-78
2023/04/07 00:40:49;;;;;;;69.87;40.63;;;;;;;;;;5024781;28;20242;-78
2023/04/07 00:43:16;;;;;;;70.60;38.37;;;;;;;;;;5020649;28;20188;-78
2023/04/07 00:45:42;;;;;;;70.93;38.47;;;;;;;;;;5009265;28;20199;-79
2023/04/07 00:48:09;;;;;;;70.73;38.53;;;;;;;;;;5045340;28;20184;-79
2023/04/07 00:50:35;;;;;;;70.27;37.63;;;;;;;;;;5046309;28;20191;-80
2023/04/07 00:53:01;;;;;;;70.73;37.23;;;;;;;;;;5027334;28;20291;-80
2023/04/07 00:55:27;;;;;;;68.33;36.17;;;;;;;;;;5022642;28;20250;-79
2023/04/07 00:57:54;;;;;;;66.93;35.60;;;;;;;;;;5010287;28;20192;-80
2023/04/07 01:00:20;;;;;;;60.50;34.53;;;;;;;;;;5045254;28;20203;-80
2023/04/07 01:02:51;;;;;;;62.70;33.87;;;;;;;;;;5011592;28;20273;-79
2023/04/07 01:05:21;;;;;;;58.20;32.57;;;;;;;;;;5043831;28;20196;-79
2023/04/07 01:08:06;;;;;;;55.47;31.20;;;;;;;;;;5043673;28;20313;-79
2023/04/07 01:10:37;;;;;;;61.47;32.77;;;;;;;;;;5045532;28;20180;-79
2023/04/07 01:13:09;;;;;;;64.10;32.53;;;;;;;;;;5026382;28;20212;-78
2023/04/07 01:15:36;;;;;;;54.47;31.67;;;;;;;;;;5019730;28;20191;-78
2023/04/07 01:18:13;;;;;;;58.10;32.13;;;;;;;;;;5010512;28;20195;-78
2023/04/07 01:20:40;;;;;;;60.20;32.57;;;;;;;;;;5043603;28;20218;-79
2023/04/07 01:23:07;;;;;;;62.37;33.63;;;;;;;;;;5020624;28;20191;-80
2023/04/07 01:25:54;;;;;;;62.43;33.27;;;;;;;;;;5026686;28;20383;-79
2023/04/07 01:28:40;;;;;;;63.40;32.77;;;;;;;;;;5029204;28;20192;-79
2023/04/07 01:31:09;;;;;;;65.43;34.73;;;;;;;;;;5025449;28;20215;-79
2023/04/07 01:33:36;;;;;;;71.23;34.03;;;;;;;;;;5020381;28;20187;-79
2023/04/07 01:36:03;;;;;;;70.60;34.50;;;;;;;;;;5020983;28;20176;-79
2023/04/07 01:38:31;;;;;;;66.47;34.03;;;;;;;;;;5022770;28;20200;-79
2023/04/07 01:40:58;;;;;;;57.23;32.53;;;;;;;;;;5009444;28;20212;-77
2023/04/07 01:43:25;;;;;;;64.43;33.33;;;;;;;;;;5044121;28;20196;-78
2023/04/07 01:45:52;;;;;;;62.57;33.03;;;;;;;;;;5007771;28;20203;-78
2023/04/07 01:48:18;;;;;;;61.00;32.87;;;;;;;;;;5025716;28;20245;-78
2023/04/07 01:50:44;;;;;;;56.17;32.33;;;;;;;;;;5026270;28;20253;-78
2023/04/07 01:53:11;;;;;;;57.70;30.00;;;;;;;;;;5013013;28;20184;-78
2023/04/07 01:55:37;;;;;;;56.13;30.10;;;;;;;;;;5027985;28;20207;-78
2023/04/07 01:58:05;;;;;;;59.43;30.30;;;;;;;;;;5029360;28;20187;-78
2023/04/07 02:00:31;;;;;;;56.27;29.53;;;;;;;;;;5030259;28;20207;-78
2023/04/07 02:02:59;;;;;;;55.63;30.73;;;;;;;;;;5013254;28;20242;-77
2023/04/07 02:05:27;;;;;;;53.97;29.37;;;;;;;;;;5029299;28;20266;-78
2023/04/07 02:08:02;;;;;;;48.43;26.63;;;;;;;;;;5026015;28;20223;-80
2023/04/07 02:10:29;;;;;;;47.30;25.17;;;;;;;;;;5027349;28;20187;-81
2023/04/07 02:12:56;;;;;;;41.70;24.10;;;;;;;;;;5046892;28;20290;-79
2023/04/07 02:15:22;;;;;;;48.57;25.73;;;;;;;;;;5013563;28;20223;-79
2023/04/07 02:17:51;;;;;;;41.33;23.43;;;;;;;;;;5014466;28;20192;-79
2023/04/07 02:20:17;;;;;;;38.03;21.97;;;;;;;;;;5045323;28;20187;-79
2023/04/07 02:22:44;;;;;;;38.73;22.53;;;;;;;;;;5025863;28;20187;-79
2023/04/07 02:25:24;;;;;;;39.57;22.87;;;;;;;;;;5027322;28;20183;-79
2023/04/07 02:27:50;;;;;;;41.13;22.87;;;;;;;;;;5028858;28;20187;-79
2023/04/07 02:30:16;;;;;;;39.93;22.77;;;;;;;;;;5027452;28;20206;-80
2023/04/07 02:32:48;;;;;;;36.13;21.47;;;;;;;;;;5028187;28;20226;-80
2023/04/07 02:35:15;;;;;;;40.73;22.03;;;;;;;;;;5026348;28;20188;-80
2023/04/07 02:37:42;;;;;;;41.63;22.23;;;;;;;;;;5025345;28;20188;-80
2023/04/07 02:40:08;;;;;;;38.13;22.40;;;;;;;;;;5044441;28;20180;-80
2023/04/07 02:42:35;;;;;;;40.73;22.77;;;;;;;;;;5024730;28;20279;-80
2023/04/07 02:45:01;;;;;;;40.00;23.87;;;;;;;;;;5043532;28;20255;-80
2023/04/07 02:47:27;;;;;;;47.50;23.53;;;;;;;;;;5044993;28;20188;-80
2023/04/07 02:49:53;;;;;;;42.00;23.07;;;;;;;;;;5013329;28;20192;-80
2023/04/07 02:52:19;;;;;;;42.53;24.47;;;;;;;;;;5016505;28;20220;-80
2023/04/07 02:54:46;;;;;;;37.37;22.90;;;;;;;;;;5029100;28;20221;-81
2023/04/07 02:57:12;;;;;;;39.83;23.83;;;;;;;;;;5024935;28;20212;-81
2023/04/07 02:59:39;;;;;;;40.10;24.47;;;;;;;;;;5025795;28;20188;-80
2023/04/07 03:02:05;;;;;;;39.10;23.63;;;;;;;;;;5025438;28;20244;-80
2023/04/07 03:04:31;;;;;;;37.23;22.67;;;;;;;;;;5010150;28;20200;-80
2023/04/07 03:06:57;;;;;;;40.30;23.43;;;;;;;;;;5025872;28;20195;-81
2023/04/07 03:09:23;;;;;;;35.17;21.77;;;;;;;;;;5009641;28;20223;-80
2023/04/07 03:11:49;;;;;;;38.93;22.67;;;;;;;;;;5026947;28;20286;-80
2023/04/07 03:14:16;;;;;;;41.33;22.97;;;;;;;;;;5027325;28;20233;-80
2023/04/07 03:16:42;;;;;;;34.57;21.47;;;;;;;;;;5012119;28;20188;-80
2023/04/07 03:19:08;;;;;;;39.10;22.10;;;;;;;;;;5024219;28;20264;-79
2023/04/07 03:21:35;;;;;;;35.07;21.70;;;;;;;;;;5011414;28;20199;-79
2023/04/07 03:24:01;;;;;;;32.47;22.00;;;;;;;;;;5032989;28;20188;-79
2023/04/07 03:26:27;;;;;;;34.37;21.17;;;;;;;;;;5031749;28;20188;-79
2023/04/07 03:28:54;;;;;;;37.50;21.30;;;;;;;;;;5010651;28;20191;-79
2023/04/07 03:31:20;;;;;;;39.20;20.67;;;;;;;;;;5012622;28;20230;-79
2023/04/07 03:33:46;;;;;;;36.10;20.47;;;;;;;;;;5033227;28;20310;-79
2023/04/07 03:36:12;;;;;;;41.03;21.30;;;;;;;;;;5016697;28;20189;-78
2023/04/07 03:38:38;;;;;;;35.07;21.23;;;;;;;;;;5017003;28;20207;-78
2023/04/07 03:41:04;;;;;;;37.87;20.47;;;;;;;;;;5021567;28;20187;-78
2023/04/07 03:43:31;;;;;;;40.03;20.70;;;;;;;;;;5036459;28;20180;-78
2023/04/07 03:45:57;;;;;;;36.87;21.43;;;;;;;;;;5020290;28;20191;-78
2023/04/07 03:48:23;;;;;;;31.73;21.30;;;;;;;;;;5053802;28;20219;-79
2023/04/07 03:50:49;;;;;;;41.37;20.03;;;;;;;;;;5036509;28;20191;-79
2023/04/07 03:53:15;;;;;;;27.27;16.50;;;;;;;;;;5020352;28;20180;-79
2023/04/07 03:55:42;;;;;;;28.67;17.27;;;;;;;;;;5035801;28;20177;-79
2023/04/07 03:58:09;;;;;;;29.03;16.73;;;;;;;;;;5037923;28;20169;-79
2023/04/07 04:00:35;;;;;;;29.40;17.97;;;;;;;;;;5004024;28;20191;-79
2023/04/07 04:03:01;;;;;;;32.07;18.90;;;;;;;;;;5004554;28;20246;-79
2023/04/07 04:05:27;;;;;;;32.13;19.37;;;;;;;;;;5016421;28;20188;-79
2023/04/07 04:07:53;;;;;;;38.33;20.33;;;;;;;;;;5015022;28;20268;-79
2023/04/07 04:10:19;;;;;;;39.30;20.20;;;;;;;;;;5005697;28;20193;-80
2023/04/07 04:12:47;;;;;;;35.63;19.97;;;;;;;;;;5039970;28;20215;-79
2023/04/07 04:15:13;;;;;;;35.13;20.47;;;;;;;;;;5057762;28;20172;-79
2023/04/07 04:17:40;;;;;;;38.23;19.97;;;;;;;;;;5023482;28;20232;-79
2023/04/07 04:20:06;;;;;;;34.43;19.97;;;;;;;;;;5023755;28;20191;-79
2023/04/07 04:22:32;;;;;;;35.27;19.73;;;;;;;;;;5039670;28;20185;-79
2023/04/07 04:24:59;;;;;;;37.33;20.57;;;;;;;;;;5023869;28;20179;-79
2023/04/07 04:27:25;;;;;;;40.93;20.33;;;;;;;;;;5039717;28;20183;-78
2023/04/07 04:29:51;;;;;;;38.43;19.53;;;;;;;;;;5039646;28;20188;-79
2023/04/07 04:32:17;;;;;;;36.43;20.73;;;;;;;;;;5041538;28;20254;-79
2023/04/07 04:34:43;;;;;;;28.90;17.87;;;;;;;;;;5021690;28;20196;-78
2023/04/07 04:37:09;;;;;;;35.70;19.33;;;;;;;;;;5038693;28;20218;-78
2023/04/07 04:39:35;;;;;;;26.20;15.37;;;;;;;;;;5038721;28;20206;-79
2023/04/07 04:42:02;;;;;;;34.58;19.50;;;;;;;;;;5038107;28;20477;-80
2023/04/07 04:44:29;;;;;;;28.47;17.00;;;;;;;;;;5039675;28;20262;-80
2023/04/07 04:46:55;;;;;;;31.13;16.63;;;;;;;;;;5027514;23;20232;-80
2023/04/07 04:49:21;;;;;;;32.30;17.53;;;;;;;;;;5026823;28;20195;-78
2023/04/07 04:51:47;;;;;;;32.97;17.57;;;;;;;;;;5037405;28;20211;-78
2023/04/07 04:54:13;;;;;;;34.13;17.93;;;;;;;;;;5060317;28;20176;-78
2023/04/07 04:56:39;;;;;;;32.40;19.00;;;;;;;;;;5053591;28;20229;-78
2023/04/07 04:59:06;;;;;;;39.40;20.20;;;;;;;;;;5038872;28;20210;-79
2023/04/07 05:01:32;;;;;;;34.00;19.90;;;;;;;;;;5055266;28;20179;-79
2023/04/07 05:03:57;;;;;;;37.80;20.10;;;;;;;;;;5021348;28;20199;-79
2023/04/07 05:06:24;;;;;;;42.23;20.97;;;;;;;;;;5021493;28;20192;-79
2023/04/07 05:08:50;;;;;;;43.67;21.00;;;;;;;;;;5022397;28;20195;-79
2023/04/07 05:11:16;;;;;;;40.80;21.70;;;;;;;;;;5039037;28;20204;-79
2023/04/07 05:13:42;;;;;;;36.87;20.40;;;;;;;;;;5037754;28;20191;-79
2023/04/07 05:16:08;;;;;;;37.87;21.23;;;;;;;;;;5020113;28;20184;-79
2023/04/07 05:18:34;;;;;;;39.40;22.20;;;;;;;;;;5037660;28;20279;-79
2023/04/07 05:21:03;;;;;;;39.10;20.83;;;;;;;;;;5037636;28;20248;-79
2023/04/07 05:23:29;;;;;;;39.20;21.33;;;;;;;;;;5018485;28;20212;-79
2023/04/07 05:25:55;;;;;;;37.77;22.33;;;;;;;;;;5035017;28;20185;-79
2023/04/07 05:28:21;;;;;;;42.03;22.33;;;;;;;;;;5018494;28;20192;-79
2023/04/07 05:30:47;;;;;;;35.80;20.03;;;;;;;;;;5018480;28;20208;-79
2023/04/07 05:33:13;;;;;;;38.43;21.23;;;;;;;;;;5038355;28;20259;-80
2023/04/07 05:35:39;;;;;;;34.67;20.87;;;;;;;;;;5038325;28;20271;-80
2023/04/07 05:38:05;;;;;;;41.57;21.13;;;;;;;;;;5021548;28;20191;-80
2023/04/07 05:40:32;;;;;;;29.67;20.20;;;;;;;;;;5013322;28;20196;-80
2023/04/07 05:42:58;;;;;;;35.67;19.17;;;;;;;;;;5016664;28;20189;-80
2023/04/07 05:45:24;;;;;;;32.20;19.47;;;;;;;;;;5037734;28;20187;-80
2023/04/07 05:47:50;;;;;;;30.47;18.83;;;;;;;;;;5020896;28;20223;-80
2023/04/07 05:50:17;;;;;;;33.00;19.67;;;;;;;;;;5021857;28;20180;-79
2023/04/07 05:52:43;;;;;;;29.37;17.63;;;;;;;;;;5021418;28;20258;-79
2023/04/07 05:55:09;;;;;;;32.40;17.80;;;;;;;;;;5018167;28;20184;-79
2023/04/07 05:57:35;;;;;;;25.83;17.67;;;;;;;;;;5023776;28;20176;-79
2023/04/07 06:00:01;;;;;;;32.40;18.50;;;;;;;;;;5037663;28;20184;-79
2023/04/07 06:02:27;;;;;;;26.97;18.30;;;;;;;;;;5021771;28;20188;-79
2023/04/07 06:04:53;;;;;;;30.97;18.10;;;;;;;;;;5021985;28;20192;-79
2023/04/07 06:07:19;;;;;;;30.40;18.57;;;;;;;;;;5018195;28;20254;-79
2023/04/07 06:09:45;;;;;;;29.50;18.80;;;;;;;;;;5009213;28;20197;-79
2023/04/07 06:12:12;;;;;;;27.73;18.33;;;;;;;;;;5021017;28;20349;-79
2023/04/07 06:14:38;;;;;;;30.20;17.87;;;;;;;;;;5021498;28;20275;-79
2023/04/07 06:17:04;;;;;;;27.77;17.97;;;;;;;;;;5038092;28;20239;-79
2023/04/07 06:19:32;;;;;;;28.00;18.10;;;;;;;;;;5021189;28;20184;-79
2023/04/07 06:22:01;;;;;;;27.63;17.50;;;;;;;;;;5066725;23;20240;-92
2023/04/07 06:24:27;;;;;;;26.90;18.17;;;;;;;;;;5068080;28;20188;-91
2023/04/07 06:26:54;;;;;;;27.70;17.50;;;;;;;;;;5052499;28;20184;-88
2023/04/07 06:29:22;;;;;;;29.33;18.13;;;;;;;;;;5048327;28;20176;-89
2023/04/07 06:31:51;;;;;;;29.43;17.93;;;;;;;;;;5023930;28;20250;-89
2023/04/07 06:34:17;;;;;;;27.50;17.83;;;;;;;;;;5037006;28;20180;-87
2023/04/07 06:36:45;;;;;;;28.87;17.57;;;;;;;;;;5052012;28;20176;-86
2023/04/07 06:39:11;;;;;;;27.03;17.43;;;;;;;;;;5035805;28;20298;-86
2023/04/07 06:41:38;;;;;;;22.40;16.03;;;;;;;;;;5032922;28;20185;-86
2023/04/07 06:44:04;;;;;;;31.60;17.57;;;;;;;;;;5028111;28;20188;-87
2023/04/07 06:46:30;;;;;;;29.03;16.73;;;;;;;;;;5025187;28;20280;-87
2023/04/07 06:48:56;;;;;;;23.87;15.83;;;;;;;;;;5016150;28;20191;-86
2023/04/07 06:51:22;;;;;;;29.57;15.97;;;;;;;;;;5043813;28;20204;-87
2023/04/07 06:53:48;;;;;;;28.13;14.40;;;;;;;;;;5015642;28;20199;-87
2023/04/07 06:56:17;;;;;;;25.03;14.97;;;;;;;;;;5032944;28;20175;-87
2023/04/07 06:58:43;;;;;;;25.80;15.00;;;;;;;;;;5022987;28;20180;-86
2023/04/07 07:01:09;;;;;;;27.00;14.73;;;;;;;;;;5034817;28;20180;-87
2023/04/07 07:03:35;;;;;;;25.00;14.13;;;;;;;;;;5027347;28;20245;-85
2023/04/07 07:06:01;;;;;;;21.53;14.30;;;;;;;;;;5018891;28;20219;-86
2023/04/07 07:08:28;;;;;;;25.37;14.20;;;;;;;;;;5029015;28;20284;-86
2023/04/07 07:10:55;;;;;;;29.80;14.57;;;;;;;;;;5016494;28;20275;-85
2023/04/07 07:13:22;;;;;;;24.30;14.60;;;;;;;;;;5030855;28;20248;-85
2023/04/07 07:15:48;;;;;;;24.30;13.17;;;;;;;;;;5031090;28;20187;-85
2023/04/07 07:18:15;;;;;;;22.47;13.30;;;;;;;;;;5014336;28;20279;-86
2023/04/07 07:20:41;;;;;;;20.47;13.77;;;;;;;;;;5024797;28;20195;-86
2023/04/07 07:23:07;;;;;;;23.03;13.73;;;;;;;;;;5020008;28;20247;-86
2023/04/07 07:25:35;;;;;;;20.67;13.60;;;;;;;;;;5028335;28;20184;-86
2023/04/07 07:28:01;;;;;;;20.80;13.10;;;;;;;;;;5019534;28;20190;-86
2023/04/07 07:30:28;;;;;;;16.57;10.77;;;;;;;;;;5016215;28;20199;-86
2023/04/07 07:32:56;;;;;;;16.27;10.67;;;;;;;;;;5016980;28;20216;-86
2023/04/07 07:35:24;;;;;;;17.33;9.67;;;;;;;;;;5031111;28;20179;-87
2023/04/07 07:37:50;;;;;;;13.77;9.13;;;;;;;;;;5036216;28;20172;-87
2023/04/07 07:40:17;;;;;;;12.80;8.77;;;;;;;;;;5036521;28;20191;-87
2023/04/07 07:42:43;;;;;;;12.10;8.23;;;;;;;;;;5035956;28;20187;-86
2023/04/07 07:45:10;;;;;;;14.27;8.50;;;;;;;;;;5034558;28;20248;-90
2023/04/07 07:47:54;;;;;;;13.67;8.13;;;;;;;;;;5036749;28;20179;-91
2023/04/07 07:50:23;;;;;;;12.07;8.13;;;;;;;;;;5032202;28;20208;-88
2023/04/07 07:52:52;;;;;;;11.87;8.60;;;;;;;;;;5016526;28;20262;-92
2023/04/07 07:55:28;;;;;;;;;;;;;;;;;;;;;
2023/04/07 07:58:06;;;;;;;12.07;8.47;;;;;;;;;;5033724;28;20194;-90
2023/04/07 08:00:32;;;;;;;11.70;8.07;;;;;;;;;;4999629;28;20231;-90
2023/04/07 08:02:59;;;;;;;13.57;7.73;;;;;;;;;;5015524;28;20188;-88
2023/04/07 08:05:25;;;;;;;10.27;7.20;;;;;;;;;;5016332;28;20180;-87
2023/04/07 08:07:52;;;;;;;10.20;7.40;;;;;;;;;;5020325;28;20204;-89
2023/04/07 08:10:19;;;;;;;6.97;5.93;;;;;;;;;;5015861;28;20188;-91
2023/04/07 08:12:47;;;;;;;7.73;6.10;;;;;;;;;;5027886;28;20203;-89
2023/04/07 08:15:13;;;;;;;7.37;5.17;;;;;;;;;;5035657;28;20186;-91
2023/04/07 08:17:40;;;;;;;7.83;4.90;;;;;;;;;;5035699;28;20184;-89
2023/04/07 08:20:09;;;;;;;6.97;5.23;;;;;;;;;;5034041;28;20175;-88
2023/04/07 08:22:35;;;;;;;8.13;6.00;;;;;;;;;;5016334;28;20250;-90
2023/04/07 08:25:10;;;;;;;7.33;5.17;;;;;;;;;;5015952;28;20191;-89
2023/04/07 08:27:36;;;;;;;6.77;4.80;;;;;;;;;;5016154;28;20219;-88
2023/04/07 08:30:03;;;;;;;8.47;4.80;;;;;;;;;;5015200;28;20184;-89
2023/04/07 08:32:37;;;;;;;6.80;4.40;;;;;;;;;;5015781;28;20224;-86
2023/04/07 08:35:14;;;;;;;5.20;4.30;;;;;;;;;;5029227;28;20278;-92
2023/04/07 08:37:43;;;;;;;8.10;4.27;;;;;;;;;;5031883;28;20259;-87
2023/04/07 08:40:09;;;;;;;4.90;4.13;;;;;;;;;;5017521;28;20181;-87
2023/04/07 08:42:39;;;;;;;4.80;3.50;;;;;;;;;;5018872;28;20184;-88
2023/04/07 08:45:07;;;;;;;5.87;3.73;;;;;;;;;;5019473;28;20184;-86
2023/04/07 08:47:39;;;;;;;4.70;4.10;;;;;;;;;;5019037;28;20189;-87
2023/04/07 08:50:09;;;;;;;5.57;4.30;;;;;;;;;;5019054;28;20251;-83
2023/04/07 08:52:51;;;;;;;6.30;4.30;;;;;;;;;;5032516;28;20215;-89
2023/04/07 08:55:40;;;;;;;7.37;4.70;;;;;;;;;;5021566;28;20180;-93
2023/04/07 08:58:11;;;;;;;6.57;4.60;;;;;;;;;;4941766;29;20239;-92
2023/04/07 09:00:48;;;;;;;;;;;;;;;;;;;;;
2023/04/07 09:03:16;;;;;;;6.90;4.50;;;;;;;;;;5070722;23;20311;-76
2023/04/07 09:05:45;;;;;;;5.77;4.20;;;;;;;;;;5054659;28;20192;-77
2023/04/07 09:08:11;;;;;;;5.27;4.33;;;;;;;;;;5034627;28;20184;-76
2023/04/07 09:10:37;;;;;;;6.20;5.07;;;;;;;;;;5019123;28;20188;-76
2023/04/07 09:13:03;;;;;;;9.60;5.00;;;;;;;;;;5024437;28;20243;-80
2023/04/07 09:15:33;;;;;;;8.70;5.43;;;;;;;;;;5056244;28;20206;-81
2023/04/07 09:17:59;;;;;;;7.03;5.77;;;;;;;;;;5037497;28;20195;-81
2023/04/07 09:20:25;;;;;;;7.37;5.57;;;;;;;;;;5021784;28;20187;-81
2023/04/07 09:22:51;;;;;;;7.83;5.50;;;;;;;;;;5040286;28;20271;-81
2023/04/07 09:25:18;;;;;;;11.80;5.97;;;;;;;;;;5017997;28;20184;-81
2023/04/07 09:28:13;;;;;;;10.13;5.70;;;;;;;;;;5018180;28;20334;-81
2023/04/07 09:30:51;;;;;;;6.80;5.83;;;;;;;;;;5025589;28;20205;-77
2023/04/07 09:33:26;;;;;;;8.07;5.63;;;;;;;;;;5018111;28;20208;-77
2023/04/07 09:35:52;;;;;;;6.33;5.37;;;;;;;;;;5017424;28;20184;-76
2023/04/07 09:38:18;;;;;;;7.93;5.07;;;;;;;;;;5017675;28;20180;-77
2023/04/07 09:40:44;;;;;;;9.13;5.20;;;;;;;;;;5035596;28;20196;-77
2023/04/07 09:43:17;;;;;;;7.13;5.47;;;;;;;;;;5017540;28;20188;-77
2023/04/07 09:45:43;;;;;;;9.27;5.10;;;;;;;;;;5018153;28;20215;-82
2023/04/07 09:48:20;;;;;;;7.33;4.87;;;;;;;;;;5017252;28;20192;-77
2023/04/07 09:50:49;;;;;;;7.33;4.93;;;;;;;;;;5026730;28;20199;-77
2023/04/07 09:53:17;;;;;;;7.90;7.20;;;;;;;;;;5034082;28;20215;-77
2023/04/07 09:55:43;;;;;;;10.87;9.70;;;;;;;;;;5034076;28;20185;-81
2023/04/07 09:58:12;;;;;;;9.57;8.53;;;;;;;;;;5034723;28;20184;-82
2023/04/07 10:00:39;;;;;;;12.10;7.13;;;;;;;;;;5017974;28;20268;-81
2023/04/07 10:03:05;;;;;;;10.17;7.93;;;;;;;;;;5020530;28;20224;-76
2023/04/07 10:05:32;;;;;;;25.60;22.20;;;;;;;;;;5034274;28;20267;-77
2023/04/07 10:07:58;;;;;;;62.40;46.07;;;;;;;;;;5044758;28;20199;-76
2023/04/07 10:10:25;;;;;;;20.23;10.47;;;;;;;;;;5037671;28;20184;-77
2023/04/07 10:12:53;;;;;;;24.40;19.63;;;;;;;;;;5037437;28;20211;-77
2023/04/07 10:15:20;;;;;;;21.20;14.83;;;;;;;;;;5036330;28;20211;-77
2023/04/07 10:17:50;;;;;;;15.83;10.70;;;;;;;;;;5037462;28;20172;-77
2023/04/07 10:20:17;;;;;;;14.83;9.33;;;;;;;;;;5036088;28;20188;-80
2023/04/07 10:22:44;;;;;;;18.90;11.00;;;;;;;;;;5020844;28;20278;-80
2023/04/07 10:25:12;;;;;;;19.23;11.20;;;;;;;;;;5036342;28;20199;-80
2023/04/07 10:27:56;;;;;;;16.10;10.43;;;;;;;;;;5054842;28;20263;-80
2023/04/07 10:30:29;;;;;;;15.07;8.33;;;;;;;;;;5036241;28;20234;-80
2023/04/07 10:32:56;;;;;;;13.73;8.43;;;;;;;;;;5035227;28;20298;-80
2023/04/07 10:35:22;;;;;;;13.70;7.73;;;;;;;;;;5020661;28;20270;-80
2023/04/07 10:38:07;;;;;;;14.07;6.97;;;;;;;;;;5019439;28;20180;-77
2023/04/07 10:40:33;;;;;;;8.63;6.10;;;;;;;;;;5053946;28;20183;-77
2023/04/07 10:43:00;;;;;;;11.77;6.30;;;;;;;;;;5035295;28;20198;-77
2023/04/07 10:45:45;;;;;;;10.53;6.27;;;;;;;;;;5020263;28;20207;-77
2023/04/07 10:48:12;;;;;;;11.90;6.00;;;;;;;;;;5036196;28;20310;-77
2023/04/07 10:50:38;;;;;;;9.57;6.30;;;;;;;;;;5019223;28;20199;-77
2023/04/07 10:53:07;;;;;;;9.33;5.97;;;;;;;;;;5037080;28;20216;-83
2023/04/07 10:55:40;;;;;;;10.37;6.27;;;;;;;;;;5035751;28;20219;-83
2023/04/07 10:58:29;;;;;;;8.77;5.90;;;;;;;;;;5036514;28;20211;-83
2023/04/07 11:01:08;;;;;;;9.10;5.60;;;;;;;;;;5052116;28;20192;-83
2023/04/07 11:03:38;;;;;;;9.67;5.43;;;;;;;;;;5031923;28;20231;-83
2023/04/07 11:06:05;;;;;;;10.27;4.97;;;;;;;;;;5016740;28;20211;-83
2023/04/07 11:08:32;;;;;;;7.53;4.77;;;;;;;;;;5023102;28;20260;-83
2023/04/07 11:10:58;;;;;;;7.47;4.70;;;;;;;;;;5053922;28;20199;-82
2023/04/07 11:13:24;;;;;;;5.80;4.67;;;;;;;;;;5031840;28;20223;-82
2023/04/07 11:15:51;;;;;;;6.30;4.33;;;;;;;;;;5000148;28;20200;-83
2023/04/07 11:18:22;;;;;;;7.77;4.50;;;;;;;;;;5028477;28;20185;-82
2023/04/07 11:20:53;;;;;;;5.73;4.40;;;;;;;;;;5032479;28;20173;-83
2023/04/07 11:23:20;;;;;;;9.17;5.20;;;;;;;;;;5036357;28;20229;-83
2023/04/07 11:25:47;;;;;;;8.17;5.20;;;;;;;;;;5035499;28;20176;-82
2023/04/07 11:28:14;;;;;;;8.53;5.90;;;;;;;;;;5020209;28;20270;-81
2023/04/07 11:30:51;;;;;;;9.23;5.93;;;;;;;;;;5035240;28;20200;-81
2023/04/07 11:33:18;;;;;;;8.03;5.67;;;;;;;;;;5035752;28;20199;-80
2023/04/07 11:35:57;;;;;;;9.43;6.30;;;;;;;;;;5019104;28;20265;-80
2023/04/07 11:38:27;;;;;;;9.77;6.67;;;;;;;;;;5033063;28;20168;-80
2023/04/07 11:40:54;;;;;;;11.30;6.97;;;;;;;;;;5016352;28;20169;-78
2023/04/07 11:43:22;;;;;;;11.13;7.40;;;;;;;;;;5039530;28;20183;-77
2023/04/07 11:46:10;;;;;;;10.43;7.50;;;;;;;;;;5035817;28;20207;-77
2023/04/07 11:48:37;;;;;;;11.00;7.10;;;;;;;;;;5052225;28;20176;-77
2023/04/07 11:51:03;;;;;;;11.57;7.50;;;;;;;;;;5035486;28;20176;-77
2023/04/07 11:53:33;;;;;;;11.97;7.33;;;;;;;;;;5031641;28;20189;-77
2023/04/07 11:55:59;;;;;;;10.40;7.43;;;;;;;;;;5018213;28;20194;-77
2023/04/07 11:58:26;;;;;;;10.33;7.43;;;;;;;;;;5035922;28;20242;-77
2023/04/07 12:01:05;;;;;;;10.97;7.53;;;;;;;;;;5018115;28;20191;-77
2023/04/07 12:03:32;;;;;;;10.87;7.93;;;;;;;;;;5035319;28;20362;-78
2023/04/07 12:05:58;;;;;;;10.87;7.23;;;;;;;;;;5034981;28;20188;-78
2023/04/07 12:08:36;;;;;;;13.40;7.47;;;;;;;;;;5019355;28;20275;-78
2023/04/07 12:11:03;;;;;;;11.70;7.77;;;;;;;;;;5034905;28;20215;-78
2023/04/07 12:13:29;;;;;;;11.83;7.40;;;;;;;;;;5032261;28;20189;-78
2023/04/07 12:15:56;;;;;;;13.47;9.50;;;;;;;;;;5019964;28;20210;-78
2023/04/07 12:18:22;;;;;;;52.07;30.87;;;;;;;;;;5019154;28;20188;-77
2023/04/07 12:20:49;;;;;;;29.00;15.80;;;;;;;;;;5037287;28;20173;-77
2023/04/07 12:23:15;;;;;;;32.83;18.73;;;;;;;;;;5027415;28;20185;-77
2023/04/07 12:25:41;;;;;;;22.47;12.83;;;;;;;;;;5036110;28;20172;-77
2023/04/07 12:28:07;;;;;;;35.57;27.77;;;;;;;;;;5035010;28;20181;-77
2023/04/07 12:30:33;;;;;;;28.83;22.20;;;;;;;;;;5035146;28;20223;-77
2023/04/07 12:33:02;;;;;;;31.20;26.30;;;;;;;;;;5037237;28;20200;-77
2023/04/07 12:35:28;;;;;;;17.37;15.50;;;;;;;;;;5038033;28;20184;-80
2023/04/07 12:37:55;;;;;;;16.73;14.20;;;;;;;;;;5056863;28;20179;-81
2023/04/07 12:40:21;;;;;;;13.37;10.37;;;;;;;;;;5038066;28;20215;-80
2023/04/07 12:42:47;;;;;;;13.53;9.17;;;;;;;;;;5039079;28;20195;-81
2023/04/07 12:45:13;;;;;;;12.77;9.23;;;;;;;;;;5022847;28;20203;-81
2023/04/07 12:47:40;;;;;;;11.13;8.67;;;;;;;;;;5023204;28;20196;-81
2023/04/07 12:50:06;;;;;;;11.37;7.93;;;;;;;;;;5039278;28;20227;-78
2023/04/07 12:52:32;;;;;;;13.83;8.10;;;;;;;;;;5037086;28;20219;-78
2023/04/07 12:54:58;;;;;;;13.77;8.47;;;;;;;;;;5019911;28;20181;-78
2023/04/07 12:57:25;;;;;;;12.63;8.17;;;;;;;;;;5024823;28;20188;-78
2023/04/07 12:59:52;;;;;;;11.60;8.37;;;;;;;;;;5023378;28;20176;-78
2023/04/07 13:02:18;;;;;;;13.70;8.80;;;;;;;;;;5038851;28;20235;-78
2023/04/07 13:04:45;;;;;;;14.43;7.83;;;;;;;;;;5022952;28;20180;-78
2023/04/07 13:07:14;;;;;;;13.23;8.10;;;;;;;;;;5056587;28;20275;-78
2023/04/07 13:09:44;;;;;;;15.43;9.13;;;;;;;;;;5056684;28;20176;-78
2023/04/07 13:12:10;;;;;;;11.83;8.50;;;;;;;;;;5035702;28;20208;-78
2023/04/07 13:14:40;;;;;;;12.90;7.60;;;;;;;;;;5019235;28;20272;-78
2023/04/07 13:17:07;;;;;;;13.67;7.43;;;;;;;;;;5036615;28;20172;-78
2023/04/07 13:19:33;;;;;;;10.50;7.63;;;;;;;;;;5024782;28;20234;-78
2023/04/07 13:21:59;;;;;;;11.07;8.13;;;;;;;;;;5035801;28;20200;-78
2023/04/07 13:24:26;;;;;;;10.30;7.67;;;;;;;;;;5038943;28;20321;-81
2023/04/07 13:26:52;;;;;;;9.87;7.63;;;;;;;;;;5021454;28;20233;-81
2023/04/07 13:29:18;;;;;;;11.63;7.00;;;;;;;;;;5056069;28;20187;-81
2023/04/07 13:31:47;;;;;;;9.50;7.70;;;;;;;;;;5019950;28;20211;-81
2023/04/07 13:34:13;;;;;;;10.43;7.07;;;;;;;;;;5018935;28;20177;-81
2023/04/07 13:36:40;;;;;;;13.63;7.10;;;;;;;;;;5005710;28;20283;-81
2023/04/07 13:39:06;;;;;;;13.20;7.57;;;;;;;;;;5018742;28;20238;-81
2023/04/07 13:41:33;;;;;;;12.10;7.83;;;;;;;;;;5018093;28;20189;-78
2023/04/07 13:43:59;;;;;;;13.13;8.47;;;;;;;;;;5018364;28;20184;-79
2023/04/07 13:46:26;;;;;;;11.03;7.87;;;;;;;;;;5014085;28;20200;-79
2023/04/07 13:48:52;;;;;;;12.10;7.63;;;;;;;;;;5018273;28;20179;-79
2023/04/07 13:51:18;;;;;;;10.73;7.27;;;;;;;;;;5035729;28;20189;-78
2023/04/07 13:53:45;;;;;;;11.60;7.60;;;;;;;;;;5022037;28;20190;-78
2023/04/07 13:56:11;;;;;;;12.27;7.03;;;;;;;;;;5021924;28;20180;-78
2023/04/07 13:58:37;;;;;;;14.43;7.30;;;;;;;;;;5021896;28;20183;-78
2023/04/07 14:01:03;;;;;;;12.90;8.00;;;;;;;;;;5021183;28;20420;-77
2023/04/07 14:03:30;;;;;;;16.80;7.97;;;;;;;;;;5037755;28;20239;-78
2023/04/07 14:05:59;;;;;;;13.03;7.53;;;;;;;;;;5021448;28;20188;-79
2023/04/07 14:08:26;;;;;;;14.73;7.50;;;;;;;;;;5021866;28;20207;-78
2023/04/07 14:10:52;;;;;;;15.93;7.80;;;;;;;;;;5055149;28;20175;-81
2023/04/07 14:13:18;;;;;;;12.47;7.47;;;;;;;;;;5037758;28;20305;-81
2023/04/07 14:15:44;;;;;;;17.30;7.60;;;;;;;;;;5055254;28;20179;-81
2023/04/07 14:18:10;;;;;;;11.63;6.93;;;;;;;;;;5021177;28;20176;-82
2023/04/07 14:20:36;;;;;;;10.30;7.30;;;;;;;;;;5009833;28;20189;-81
2023/04/07 14:23:02;;;;;;;12.20;7.20;;;;;;;;;;5017904;28;20176;-79
2023/04/07 14:25:28;;;;;;;11.67;6.73;;;;;;;;;;5001413;28;20224;-79
2023/04/07 14:27:54;;;;;;;10.40;6.23;;;;;;;;;;5017640;28;20184;-79
2023/04/07 14:30:20;;;;;;;9.40;6.90;;;;;;;;;;5037491;28;20242;-78